createdAt,value
2022-08-22T00:00:30.199Z,99035.72
2022-08-22T00:02:49.029Z,99081.06
2022-08-22T00:03:15.332Z,99033.28
2022-08-22T00:03:43.623Z,99040.56
2022-08-22T00:06:31.836Z,99038.38
2022-08-22T00:09:29.638Z,99042.16
2022-08-22T00:12:10.965Z,99035.41
2022-08-22T00:14:50.401Z,99038.34
2022-08-22T00:17:51.570Z,99032.94
2022-08-22T00:20:28.071Z,99019.50
2022-08-22T00:23:04.298Z,99022.28
2022-08-22T00:25:43.260Z,99017.25
2022-08-22T00:28:16.015Z,99018.41
2022-08-22T00:31:21.958Z,99013.19
2022-08-22T00:33:53.337Z,99008.09
2022-08-22T00:36:38.946Z,99014.97
2022-08-22T00:39:24.985Z,99006.66
2022-08-22T00:42:15.535Z,99011.31
2022-08-22T00:45:31.077Z,99016.50
2022-08-22T00:48:01.543Z,99024.63
2022-08-22T00:50:53.997Z,99002.19
2022-08-22T00:53:39.839Z,99014.19
2022-08-22T00:56:41.551Z,99003.31
2022-08-22T00:59:41.343Z,99006.56
2022-08-22T01:02:20.347Z,99010.69
2022-08-22T01:04:51.588Z,99022.81
2022-08-22T01:07:50.748Z,99022.34
2022-08-22T01:10:35.995Z,99014.81
2022-08-22T01:13:16.147Z,99020.69
2022-08-22T01:15:45.728Z,99012.19
2022-08-22T01:18:41.657Z,99019.63
2022-08-22T01:21:44.722Z,99023.41
2022-08-22T01:24:21.444Z,99011.47
2022-08-22T01:26:58.181Z,99014.19
2022-08-22T01:29:38.736Z,99013.63
2022-08-22T01:32:56.873Z,99019.59
2022-08-22T01:35:49.396Z,99019.97
2022-08-22T01:38:18.236Z,99023.28
2022-08-22T01:41:13.732Z,99016.59
2022-08-22T01:44:01.128Z,99017.66
2022-08-22T01:46:59.044Z,99015.94
2022-08-22T01:49:35.590Z,99012.03
2022-08-22T01:52:19.631Z,99025.38
2022-08-22T01:54:56.590Z,99018.19
2022-08-22T01:57:26.349Z,99027.09
2022-08-22T02:00:02.205Z,99019.59
2022-08-22T02:02:45.888Z,99026.25
2022-08-22T02:05:25.931Z,99028.88
2022-08-22T02:08:06.439Z,99033.78
2022-08-22T02:10:43.196Z,99031.25
2022-08-22T02:13:32.239Z,99028.75
2022-08-22T02:16:14.980Z,99021.78
2022-08-22T02:18:54.084Z,99014.34
2022-08-22T02:21:38.692Z,99015.66
2022-08-22T02:24:25.038Z,99010.81
2022-08-22T02:27:13.312Z,99009.94
2022-08-22T02:29:46.626Z,99019.03
2022-08-22T02:32:45.416Z,99015.50
2022-08-22T02:35:33.529Z,99011.78
2022-08-22T02:38:36.357Z,99016.53
2022-08-22T02:41:21.625Z,99016.41
2022-08-22T02:44:01.343Z,99010.28
2022-08-22T02:46:50.097Z,99009.22
2022-08-22T02:49:43.598Z,99009.53
2022-08-22T02:52:30.939Z,98997.81
2022-08-22T02:55:09.298Z,98990.34
2022-08-22T02:57:41.829Z,98987.13
2022-08-22T03:00:31.123Z,98982.84
2022-08-22T03:03:41.411Z,98990.22
2022-08-22T03:06:32.816Z,98993.47
2022-08-22T03:09:30.170Z,99007.25
2022-08-22T03:12:16.583Z,99009.09
2022-08-22T03:14:59.462Z,99000.72
2022-08-22T03:17:33.536Z,99001.59
2022-08-22T03:20:35.426Z,98996.63
2022-08-22T03:23:11.991Z,99005.03
2022-08-22T03:25:49.968Z,98999.81
2022-08-22T03:28:37.392Z,99003.47
2022-08-22T03:31:19.305Z,99013.13
2022-08-22T03:34:15.988Z,99013.97
2022-08-22T03:37:32.817Z,99013.16
2022-08-22T03:40:07.428Z,99016.13
2022-08-22T03:42:44.033Z,99010.22
2022-08-22T03:45:54.030Z,99007.44
2022-08-22T03:49:02.558Z,99011.75
2022-08-22T03:51:40.900Z,99005.78
2022-08-22T03:54:21.999Z,99008.66
2022-08-22T03:57:07.385Z,99006.41
2022-08-22T04:00:12.415Z,99016.34
2022-08-22T04:02:49.476Z,99013.13
2022-08-22T04:05:44.848Z,99017.53
2022-08-22T04:08:56.957Z,99002.94
2022-08-22T04:11:54.831Z,99004.06
2022-08-22T04:14:31.448Z,99009.22
2022-08-22T04:17:20.283Z,99016.09
2022-08-22T04:20:09.815Z,99010.81
2022-08-22T04:23:09.805Z,99009.16
2022-08-22T04:25:42.214Z,99015.16
2022-08-22T04:28:27.964Z,99017.66
2022-08-22T04:31:18.065Z,99017.00
2022-08-22T04:34:27.434Z,99017.84
2022-08-22T04:37:01.739Z,99018.91
2022-08-22T04:40:07.891Z,99017.50
2022-08-22T04:42:41.997Z,99028.16
2022-08-22T04:45:33.869Z,99022.09
2022-08-22T04:48:12.901Z,99020.56
2022-08-22T04:50:55.188Z,99024.50
2022-08-22T04:53:33.123Z,99027.16
2022-08-22T04:56:25.402Z,99024.53
2022-08-22T04:59:03.066Z,99035.53
2022-08-22T05:01:53.663Z,99031.19
2022-08-22T05:04:29.923Z,99040.69
2022-08-22T05:07:11.032Z,99035.88
2022-08-22T05:09:45.064Z,99038.09
2022-08-22T05:12:20.663Z,99038.09
2022-08-22T05:14:55.256Z,99033.97
2022-08-22T05:17:27.844Z,99041.88
2022-08-22T05:20:00.584Z,99043.22
2022-08-22T05:22:30.547Z,99044.09
2022-08-22T05:25:02.712Z,99037.81
2022-08-22T05:27:34.794Z,99039.19
2022-08-22T05:30:28.417Z,99048.22
2022-08-22T05:33:24.395Z,99051.50
2022-08-22T05:36:16.268Z,99055.06
2022-08-22T05:39:09.694Z,99053.41
2022-08-22T05:41:39.809Z,99044.91
2022-08-22T05:44:25.402Z,99073.13
2022-08-22T05:47:05.132Z,99071.72
2022-08-22T05:49:58.232Z,99069.31
2022-08-22T05:52:53.438Z,99069.25
2022-08-22T05:55:32.326Z,99077.47
2022-08-22T05:58:06.033Z,99079.41
2022-08-22T06:00:39.519Z,99073.34
2022-08-22T06:03:16.392Z,99088.91
2022-08-22T06:05:50.081Z,99084.50
2022-08-22T06:08:24.623Z,99081.78
2022-08-22T06:10:56.737Z,99084.47
2022-08-22T06:13:41.405Z,99086.06
2022-08-22T06:16:17.141Z,99093.75
2022-08-22T06:18:46.557Z,99090.00
2022-08-22T06:21:22.453Z,99087.72
2022-08-22T06:23:57.785Z,99084.88
2022-08-22T06:26:31.285Z,99083.50
2022-08-22T06:29:01.315Z,99088.63
2022-08-22T06:31:34.165Z,99089.41
2022-08-22T06:34:11.366Z,99091.56
2022-08-22T06:36:41.445Z,99091.84
2022-08-22T06:39:34.414Z,99104.59
2022-08-22T06:42:18.865Z,99105.25
2022-08-22T06:45:08.741Z,99102.16
2022-08-22T06:47:43.561Z,99099.38
2022-08-22T06:50:30.157Z,99121.03
2022-08-22T06:53:18.036Z,99111.72
2022-08-22T06:55:56.502Z,99118.31
2022-08-22T06:58:46.238Z,99125.44
2022-08-22T07:01:35.613Z,99123.53
2022-08-22T07:04:08.389Z,99124.34
2022-08-22T07:06:41.415Z,99127.41
2022-08-22T07:09:20.766Z,99129.06
2022-08-22T07:12:07.212Z,99135.88
2022-08-22T07:14:45.475Z,99130.91
2022-08-22T07:17:28.767Z,99135.81
2022-08-22T07:20:04.427Z,99135.28
2022-08-22T07:22:36.727Z,99137.41
2022-08-22T07:25:15.019Z,99138.94
2022-08-22T07:28:07.842Z,99141.63
2022-08-22T07:31:17.750Z,99146.50
2022-08-22T07:33:54.126Z,99152.66
2022-08-22T07:37:01.646Z,99146.53
2022-08-22T07:39:35.892Z,99143.16
2022-08-22T07:42:17.890Z,99153.53
2022-08-22T07:45:00.906Z,99150.84
2022-08-22T07:48:00.129Z,99146.78
2022-08-22T07:50:31.838Z,99151.00
2022-08-22T07:53:08.948Z,99145.16
2022-08-22T07:55:48.455Z,99159.00
2022-08-22T07:58:21.452Z,99156.69
2022-08-22T08:00:51.296Z,99154.69
2022-08-22T08:03:23.926Z,99152.72
2022-08-22T08:05:52.807Z,99155.81
2022-08-22T08:08:31.832Z,99153.91
2022-08-22T08:11:01.291Z,99154.47
2022-08-22T08:13:40.728Z,99147.50
2022-08-22T08:16:18.118Z,99130.00
2022-08-22T08:18:48.694Z,99157.56
2022-08-22T08:21:34.065Z,99160.81
2022-08-22T08:24:02.398Z,99153.88
2022-08-22T08:27:03.333Z,99154.88
2022-08-22T08:29:32.350Z,99152.81
2022-08-22T08:32:01.445Z,99154.34
2022-08-22T08:34:32.607Z,99160.34
2022-08-22T08:37:27.776Z,99156.91
2022-08-22T08:39:59.190Z,99161.41
2022-08-22T08:43:09.031Z,99162.56
2022-08-22T08:45:59.115Z,99158.38
2022-08-22T08:48:48.528Z,99161.94
2022-08-22T08:51:41.237Z,99167.97
2022-08-22T08:54:35.664Z,99157.78
2022-08-22T08:57:06.266Z,99161.72
2022-08-22T08:59:44.269Z,99162.13
2022-08-22T09:02:34.852Z,99161.63
2022-08-22T09:05:37.591Z,99162.13
2022-08-22T09:08:27.702Z,99158.09
2022-08-22T09:11:09.888Z,99171.34
2022-08-22T09:14:01.962Z,99176.13
2022-08-22T09:16:51.600Z,99172.56
2022-08-22T09:19:44.306Z,99174.59
2022-08-22T09:22:23.328Z,99184.94
2022-08-22T09:25:18.363Z,99178.53
2022-08-22T09:27:56.165Z,99179.59
2022-08-22T09:30:28.843Z,99179.94
2022-08-22T09:33:15.167Z,99175.66
2022-08-22T09:36:03.107Z,99181.00
2022-08-22T09:38:47.852Z,99180.31
2022-08-22T09:41:27.946Z,99178.13
2022-08-22T09:44:28.217Z,99181.22
2022-08-22T09:47:13.338Z,99185.47
2022-08-22T09:49:44.940Z,99179.47
2022-08-22T09:52:33.301Z,99180.31
2022-08-22T09:55:16.225Z,99175.22
2022-08-22T09:58:02.100Z,99174.50
2022-08-22T10:00:35.862Z,99170.41
2022-08-22T10:03:17.561Z,99166.28
2022-08-22T10:05:57.564Z,99175.38
2022-08-22T10:08:28.140Z,99182.19
2022-08-22T10:11:14.132Z,99176.25
2022-08-22T10:14:08.765Z,99179.53
2022-08-22T10:16:39.668Z,99182.44
2022-08-22T10:19:44.859Z,99186.16
2022-08-22T10:22:40.671Z,99182.94
2022-08-22T10:25:28.461Z,99178.22
2022-08-22T10:28:04.264Z,99179.81
2022-08-22T10:30:54.887Z,99185.25
2022-08-22T10:33:33.249Z,99186.31
2022-08-22T10:36:12.051Z,99188.66
2022-08-22T10:38:48.361Z,99185.66
2022-08-22T10:41:33.084Z,99184.19
2022-08-22T10:44:22.198Z,99186.72
2022-08-22T10:47:01.582Z,99182.50
2022-08-22T10:49:37.518Z,99179.06
2022-08-22T10:52:17.509Z,99189.91
2022-08-22T10:55:12.721Z,99188.88
2022-08-22T10:58:09.608Z,99184.97
2022-08-22T11:00:49.682Z,99186.91
2022-08-22T11:03:30.296Z,99197.03
2022-08-22T11:06:07.002Z,99190.88
2022-08-22T11:08:57.050Z,99191.63
2022-08-22T11:11:32.900Z,99182.97
2022-08-22T11:14:10.013Z,99191.81
2022-08-22T11:17:27.904Z,99199.25
2022-08-22T11:20:09.909Z,99193.69
2022-08-22T11:23:32.470Z,99209.34
2022-08-22T11:26:33.473Z,99208.69
2022-08-22T11:29:27.202Z,99199.66
2022-08-22T11:32:28.530Z,99195.63
2022-08-22T11:35:08.983Z,99191.28
2022-08-22T11:37:43.225Z,99198.88
2022-08-22T11:40:15.916Z,99195.06
2022-08-22T11:42:56.997Z,99189.91
2022-08-22T11:45:34.775Z,99192.75
2022-08-22T11:48:16.376Z,99177.41
2022-08-22T11:51:24.906Z,99187.53
2022-08-22T11:54:11.765Z,99188.88
2022-08-22T11:56:50.203Z,99174.50
2022-08-22T11:59:56.081Z,99187.28
2022-08-22T12:02:41.246Z,99192.66
2022-08-22T12:05:26.162Z,99190.06
2022-08-22T12:08:01.090Z,99180.03
2022-08-22T12:10:36.677Z,99186.03
2022-08-22T12:13:35.062Z,99169.66
2022-08-22T12:16:41.837Z,99176.50
2022-08-22T12:20:05.620Z,99169.00
2022-08-22T12:23:08.907Z,99163.47
2022-08-22T12:25:55.851Z,99159.78
2022-08-22T12:28:53.356Z,99154.41
2022-08-22T12:31:57.952Z,99158.09
2022-08-22T12:34:38.952Z,99161.91
2022-08-22T12:37:27.535Z,99154.91
2022-08-22T12:40:18.223Z,99155.97
2022-08-22T12:43:04.707Z,99150.91
2022-08-22T12:46:00.431Z,99152.09
2022-08-22T12:48:29.236Z,99157.34
2022-08-22T12:51:18.195Z,99154.84
2022-08-22T12:53:56.605Z,99160.88
2022-08-22T12:56:47.420Z,99161.88
2022-08-22T12:59:18.856Z,99156.09
2022-08-22T13:01:49.735Z,99158.13
2022-08-22T13:04:33.323Z,99159.31
2022-08-22T13:07:01.281Z,99149.31
2022-08-22T13:09:36.702Z,99154.97
2022-08-22T13:12:23.919Z,99150.13
2022-08-22T13:15:02.015Z,99143.16
2022-08-22T13:17:30.906Z,99140.81
2022-08-22T13:20:10.661Z,99141.53
2022-08-22T13:22:45.434Z,99139.09
2022-08-22T13:25:28.789Z,99140.97
2022-08-22T13:28:10.804Z,99143.91
2022-08-22T13:30:41.523Z,99123.38
2022-08-22T13:33:22.506Z,99133.69
2022-08-22T13:35:55.139Z,99130.13
2022-08-22T13:38:46.251Z,99128.28
2022-08-22T13:41:25.821Z,99125.81
2022-08-22T13:44:10.051Z,99131.84
2022-08-22T13:46:52.773Z,99127.50
2022-08-22T13:49:35.933Z,99129.81
2022-08-22T13:52:11.804Z,99125.63
2022-08-22T13:55:12.584Z,99124.13
2022-08-22T13:57:45.848Z,99123.88
2022-08-22T14:00:48.755Z,99126.25
2022-08-22T14:04:05.720Z,99130.59
2022-08-22T14:07:02.134Z,99126.28
2022-08-22T14:09:41.782Z,99125.03
2022-08-22T14:12:22.604Z,99131.94
2022-08-22T14:14:57.727Z,99136.44
2022-08-22T14:17:34.397Z,99125.13
2022-08-22T14:20:33.607Z,99127.81
2022-08-22T14:23:10.959Z,99137.78
2022-08-22T14:25:43.277Z,99140.00
2022-08-22T14:28:28.610Z,99134.91
2022-08-22T14:31:14.571Z,99126.91
2022-08-22T14:33:54.664Z,99123.78
2022-08-22T14:36:44.744Z,99121.94
2022-08-22T14:39:20.561Z,99119.38
2022-08-22T14:42:23.818Z,99120.72
2022-08-22T14:45:18.656Z,99111.69
2022-08-22T14:48:14.156Z,99115.53
2022-08-22T14:51:00.845Z,99113.25
2022-08-22T14:53:39.065Z,99116.00
2022-08-22T14:56:18.304Z,99121.13
2022-08-22T14:58:51.087Z,99114.75
2022-08-22T15:01:22.163Z,99122.84
2022-08-22T15:04:01.376Z,99115.06
2022-08-22T15:06:47.705Z,99123.59
2022-08-22T15:09:35.067Z,99114.88
2022-08-22T15:12:08.976Z,99118.19
2022-08-22T15:14:38.441Z,99115.78
2022-08-22T15:17:09.930Z,99115.16
2022-08-22T15:19:41.837Z,99121.16
2022-08-22T15:22:25.604Z,99118.63
2022-08-22T15:25:05.128Z,99114.06
2022-08-22T15:27:36.153Z,99116.50
2022-08-22T15:30:20.370Z,99111.78
2022-08-22T15:32:51.176Z,99124.50
2022-08-22T15:35:32.198Z,99108.53
2022-08-22T15:38:03.526Z,99116.25
2022-08-22T15:40:43.650Z,99120.38
2022-08-22T15:43:35.687Z,99122.94
2022-08-22T15:46:29.510Z,99118.44
2022-08-22T15:49:13.013Z,99116.28
2022-08-22T15:51:55.303Z,99120.00
2022-08-22T15:54:34.543Z,99123.56
2022-08-22T15:57:24.924Z,99120.78
2022-08-22T15:59:57.844Z,99125.50
2022-08-22T16:02:37.851Z,99114.38
2022-08-22T16:05:14.922Z,99119.66
2022-08-22T16:08:04.225Z,99114.84
2022-08-22T16:10:51.432Z,99118.94
2022-08-22T16:13:38.406Z,99114.56
2022-08-22T16:16:45.768Z,99113.03
2022-08-22T16:19:26.558Z,99112.09
2022-08-22T16:21:54.384Z,99116.59
2022-08-22T16:24:23.981Z,99122.66
2022-08-22T16:26:53.548Z,99117.19
2022-08-22T16:29:21.164Z,99123.84
2022-08-22T16:31:48.601Z,99115.09
2022-08-22T16:34:26.602Z,99117.63
2022-08-22T16:37:03.668Z,99126.91
2022-08-22T16:39:39.228Z,99121.81
2022-08-22T16:42:13.010Z,99122.03
2022-08-22T16:45:04.607Z,99132.53
2022-08-22T16:47:33.260Z,99129.59
2022-08-22T16:50:25.146Z,99140.53
2022-08-22T16:53:10.139Z,99138.66
2022-08-22T16:55:39.723Z,99142.03
2022-08-22T16:58:40.268Z,99145.59
2022-08-22T17:01:34.732Z,99144.69
2022-08-22T17:04:22.127Z,99154.47
2022-08-22T17:06:54.161Z,99158.97
2022-08-22T17:09:36.460Z,99156.44
2022-08-22T17:12:24.364Z,99159.06
2022-08-22T17:14:53.923Z,99160.13
2022-08-22T17:17:40.358Z,99178.59
2022-08-22T17:20:10.235Z,99170.63
2022-08-22T17:23:02.588Z,99178.16
2022-08-22T17:25:30.270Z,99184.41
2022-08-22T17:28:10.595Z,99178.69
2022-08-22T17:31:02.231Z,99192.81
2022-08-22T17:33:41.784Z,99184.50
2022-08-22T17:36:46.895Z,99189.25
2022-08-22T17:39:55.840Z,99190.25
2022-08-22T17:42:41.100Z,99196.66
2022-08-22T17:45:28.288Z,99190.38
2022-08-22T17:48:40.879Z,99203.47
2022-08-22T17:51:30.564Z,99189.19
2022-08-22T17:54:16.365Z,99189.03
2022-08-22T17:57:05.841Z,99195.13
2022-08-22T17:59:47.098Z,99204.78
2022-08-22T18:02:33.762Z,99203.13
2022-08-22T18:05:01.775Z,99213.09
2022-08-22T18:08:08.759Z,99210.13
2022-08-22T18:10:39.967Z,99200.78
2022-08-22T18:13:15.124Z,99201.72
2022-08-22T18:15:51.420Z,99202.53
2022-08-22T18:18:37.260Z,99210.69
2022-08-22T18:21:40.963Z,99216.41
2022-08-22T18:24:11.516Z,99210.44
2022-08-22T18:26:42.403Z,99223.59
2022-08-22T18:29:26.759Z,99218.09
2022-08-22T18:31:54.771Z,99216.34
2022-08-22T18:34:28.045Z,99218.19
2022-08-22T18:37:41.561Z,99211.31
2022-08-22T18:40:46.898Z,99210.63
2022-08-22T18:46:01.532Z,99236.84
2022-08-22T18:48:34.815Z,99225.31
2022-08-22T18:51:20.247Z,99227.59
2022-08-22T18:54:00.825Z,99220.34
2022-08-22T18:56:31.300Z,99225.56
2022-08-22T18:59:06.113Z,99226.56
2022-08-22T19:02:10.318Z,99238.28
2022-08-22T19:04:44.361Z,99238.66
2022-08-22T19:07:30.153Z,99226.78
2022-08-22T19:10:31.905Z,99231.28
2022-08-22T19:13:38.397Z,99233.44
2022-08-22T19:16:32.951Z,99239.09
2022-08-22T19:19:17.185Z,99241.28
2022-08-22T19:22:19.856Z,99242.47
2022-08-22T19:25:21.636Z,99240.53
2022-08-22T19:28:24.033Z,99248.75
2022-08-22T19:31:16.565Z,99254.41
2022-08-22T19:34:11.999Z,99253.50
2022-08-22T19:36:42.781Z,99250.69
2022-08-22T19:39:32.817Z,99250.22
2022-08-22T19:42:21.772Z,99246.88
2022-08-22T19:45:05.352Z,99246.78
2022-08-22T19:47:41.543Z,99244.81
2022-08-22T19:50:28.350Z,99241.53
2022-08-22T19:53:32.921Z,99241.31
2022-08-22T19:56:03.437Z,99241.88
2022-08-22T19:59:05.793Z,99251.75
2022-08-22T20:01:43.891Z,99246.81
2022-08-22T20:04:31.768Z,99254.44
2022-08-22T20:07:14.719Z,99254.97
2022-08-22T20:10:04.867Z,99248.97
2022-08-22T20:13:02.350Z,99241.25
2022-08-22T20:15:31.669Z,99254.78
2022-08-22T20:21:00.458Z,99251.47
2022-08-22T20:23:32.266Z,99255.84
2022-08-22T20:26:01.036Z,99266.56
2022-08-22T20:28:33.057Z,99262.44
2022-08-22T20:31:03.308Z,99267.88
2022-08-22T20:33:39.266Z,99267.66
2022-08-22T20:36:13.829Z,99268.19
2022-08-22T20:39:00.215Z,99278.53
2022-08-22T20:41:32.363Z,99278.81
2022-08-22T20:44:30.679Z,99278.03
2022-08-22T20:47:04.489Z,99270.03
2022-08-22T20:49:46.880Z,99258.91
2022-08-22T20:52:37.466Z,99243.78
2022-08-22T20:55:20.276Z,99249.00
2022-08-22T20:57:58.121Z,99249.50
2022-08-22T21:00:49.140Z,99257.13
2022-08-22T21:03:43.750Z,99257.94
2022-08-22T21:06:17.732Z,99241.75
2022-08-22T21:08:46.903Z,99262.59
2022-08-22T21:11:40.757Z,99265.97
2022-08-22T21:14:23.685Z,99267.66
2022-08-22T21:16:53.205Z,99251.16
2022-08-22T21:19:26.494Z,99249.47
2022-08-22T21:21:55.249Z,99252.75
2022-08-22T21:24:22.745Z,99255.75
2022-08-22T21:26:59.134Z,99259.03
2022-08-22T21:29:32.767Z,99257.38
2022-08-22T21:32:11.638Z,99262.63
2022-08-22T21:34:45.957Z,99274.16
2022-08-22T21:37:23.290Z,99278.06
2022-08-22T21:39:58.694Z,99275.88
2022-08-22T21:42:32.229Z,99285.66
2022-08-22T21:45:02.755Z,99277.44
2022-08-22T21:47:31.494Z,99278.03
2022-08-22T21:50:27.039Z,99278.88
2022-08-22T21:53:03.002Z,99274.50
2022-08-22T21:55:36.266Z,99288.13
2022-08-22T21:58:06.401Z,99288.72
2022-08-22T22:01:02.008Z,99289.31
2022-08-22T22:03:35.755Z,99289.31
2022-08-22T22:06:05.762Z,99278.91
2022-08-22T22:08:33.931Z,99272.03
2022-08-22T22:11:08.403Z,99273.13
2022-08-22T22:13:36.521Z,99278.06
2022-08-22T22:16:05.728Z,99266.28
2022-08-22T22:18:34.906Z,99276.97
2022-08-22T22:21:02.896Z,99258.31
2022-08-22T22:23:31.085Z,99270.69
2022-08-22T22:26:01.901Z,99264.63
2022-08-22T22:28:48.702Z,99272.59
2022-08-22T22:31:18.322Z,99268.44
2022-08-22T22:33:46.517Z,99264.34
2022-08-22T22:36:18.685Z,99267.06
2022-08-22T22:38:47.353Z,99264.06
2022-08-22T22:41:14.988Z,99261.59
2022-08-22T22:43:43.143Z,99255.03
2022-08-22T22:46:10.967Z,99259.69
2022-08-22T22:48:38.459Z,99259.44
2022-08-22T22:51:10.584Z,99256.41
2022-08-22T22:53:42.703Z,99255.59
2022-08-22T22:56:15.910Z,99251.75
2022-08-22T22:58:44.315Z,99257.22
2022-08-22T23:01:17.187Z,99246.78
2022-08-22T23:03:46.424Z,99248.97
2022-08-22T23:06:20.885Z,99253.94
2022-08-22T23:08:49.409Z,99244.91
2022-08-22T23:11:21.623Z,99239.94
2022-08-22T23:13:49.661Z,99244.06
2022-08-22T23:16:24.358Z,99229.00
2022-08-22T23:18:52.084Z,99225.47
2022-08-22T23:21:24.442Z,99224.34
2022-08-22T23:23:55.081Z,99238.59
2022-08-22T23:26:23.514Z,99244.56
2022-08-22T23:28:51.882Z,99247.56
2022-08-22T23:31:28.205Z,99252.25
2022-08-22T23:34:00.472Z,99245.16
2022-08-22T23:36:29.680Z,99244.03
2022-08-22T23:38:57.413Z,99246.78
2022-08-22T23:41:27.688Z,99255.59
2022-08-22T23:43:55.658Z,99249.03
2022-08-22T23:46:25.180Z,99249.56
2022-08-22T23:48:53.780Z,99254.75
2022-08-22T23:51:23.776Z,99253.94
2022-08-22T23:53:53.392Z,99251.22
2022-08-22T23:56:29.859Z,99246.00
2022-08-22T23:58:59.214Z,99243.28
